首页
METAR-TAF:

METAR-TAF

机场 :

Gilze-Rijen, 荷兰

纬度: 51-34N, 经度: 004-56E, 海拔: 15米

当前天气观测

该预报发布于18分钟前的23:55 UTC
风速3节,风向东北,在北转东北之间变化
温度 23°C
湿度 73%
气压 1016 hPa
能见度10公里或以上
阴天层高于29000英尺

METAR: EHGR 242355Z AUTO 04003KT 020V080 9999 OVC290 23/18 Q1016 BLU

时间: 02:13 (00:13 UTC)

预报

该预报发布于15小时和51分钟前的08:22 UTC
预报有效从24日的 09点(UTC)到 24日的 21点(UTC)
风速7节,风向东南
能见度10公里或以上
1500米以下无云,无积雨云
几率 40%
从 24日的 18点(UTC)到 24日的 21点(UTC)
风速3节,风向多变

TAF: EHGR 240822Z 2409/2421 14007KT CAVOK PROB40 2418/2421 VRB03KT

超过4000个机场的气象观测和天气预报(METAR&TAF报告)。

可查询的气象台以黄色和红色小点在地图上表示。

将鼠标移到小点上方,可查看气象台名称。

然后点击查看天气观测和预报。

如需切换地图:点击带黑十字的绿色按钮放大地图;点击带横线的绿色按钮缩小地图;或者点击绿色箭头查看邻近地区的地图。


METAR-TAF: